Time,TemperatureF,DewpointF,PressureIn,WindDirection,WindDirectionDegrees,WindSpeedMPH,WindSpeedGustMPH,Humidity,HourlyPrecipIn,Conditions,Clouds,dailyrainin,SoftwareType,DateUTC
2013-05-14 00:02:00,39.3,29.0,30.16,NNW,330,0.0,-999.0,66,-99.99,,,0.00,weatherlink.com 1.10,2013-05-14 04:02:00,
2013-05-14 00:17:00,38.5,29.0,30.16,NNW,330,0.0,-999.0,68,-99.99,,,0.00,weatherlink.com 1.10,2013-05-14 04:17:00,
2013-05-14 00:32:00,37.6,29.0,30.16,NNW,330,0.0,-999.0,70,-99.99,,,0.00,weatherlink.com 1.10,2013-05-14 04:32:00,
2013-05-14 00:48:00,36.4,29.0,30.16,NNW,330,0.0,-999.0,74,-99.99,,,0.00,weatherlink.com 1.10,2013-05-14 04:48:00,
2013-05-14 01:03:00,35.8,29.0,30.16,NNW,330,0.0,-999.0,75,-99.99,,,0.00,weatherlink.com 1.10,2013-05-14 05:03:00,
2013-05-14 01:18:00,34.9,28.0,30.16,NNW,330,0.0,-999.0,77,-99.99,,,0.00,weatherlink.com 1.10,2013-05-14 05:18:00,
2013-05-14 01:33:00,34.2,28.0,30.16,NNW,330,0.0,-999.0,79,-99.99,,,0.00,weatherlink.com 1.10,2013-05-14 05:33:00,
2013-05-14 01:48:00,33.6,28.0,30.16,NNW,330,0.0,-999.0,81,-99.99,,,0.00,weatherlink.com 1.10,2013-05-14 05:48:00,
2013-05-14 02:03:00,33.1,29.0,30.16,NNW,330,0.0,-999.0,83,-99.99,,,0.00,weatherlink.com 1.10,2013-05-14 06:03:00,
2013-05-14 02:18:00,32.8,29.0,30.16,NNW,330,0.0,-999.0,84,-99.99,,,0.00,weatherlink.com 1.10,2013-05-14 06:18:00,
2013-05-14 02:33:00,32.4,28.0,30.16,NNW,330,0.0,-999.0,84,-99.99,,,0.00,weatherlink.com 1.10,2013-05-14 06:33:00,
2013-05-14 02:48:00,32.1,28.0,30.16,NNW,330,0.0,-999.0,85,-99.99,,,0.00,weatherlink.com 1.10,2013-05-14 06:48:00,
2013-05-14 03:03:00,31.7,28.0,30.16,NNW,330,0.0,-999.0,86,-99.99,,,0.00,weatherlink.com 1.10,2013-05-14 07:03:00,
2013-05-14 03:18:00,31.2,28.0,30.16,NNW,330,0.0,-999.0,86,-99.99,,,0.00,weatherlink.com 1.10,2013-05-14 07:18:00,
2013-05-14 03:33:00,31.0,28.0,30.17,NNW,330,0.0,-999.0,87,-99.99,,,0.00,weatherlink.com 1.10,2013-05-14 07:33:00,
2013-05-14 03:48:00,30.7,27.0,30.17,NNW,330,0.0,-999.0,87,-99.99,,,0.00,weatherlink.com 1.10,2013-05-14 07:48:00,
2013-05-14 04:03:00,30.5,27.0,30.17,NNW,330,0.0,-999.0,88,-99.99,,,0.00,weatherlink.com 1.10,2013-05-14 08:03:00,
2013-05-14 04:18:00,30.2,27.0,30.17,NNW,330,0.0,-999.0,88,-99.99,,,0.00,weatherlink.com 1.10,2013-05-14 08:18:00,
2013-05-14 04:33:00,30.0,27.0,30.16,NNW,330,0.0,-999.0,89,-99.99,,,0.00,weatherlink.com 1.10,2013-05-14 08:33:00,
2013-05-14 04:48:00,29.8,27.0,30.16,NNW,330,0.0,-999.0,89,-99.99,,,0.00,weatherlink.com 1.10,2013-05-14 08:48:00,
2013-05-14 05:03:00,29.6,27.0,30.16,NNW,330,0.0,-999.0,89,-99.99,,,0.00,weatherlink.com 1.10,2013-05-14 09:03:00,
2013-05-14 05:18:00,29.4,27.0,30.17,NNW,330,0.0,-999.0,90,-99.99,,,0.00,weatherlink.com 1.10,2013-05-14 09:18:00,
2013-05-14 05:33:00,29.2,27.0,30.17,NNW,330,0.0,-999.0,90,-99.99,,,0.00,weatherlink.com 1.10,2013-05-14 09:33:00,
2013-05-14 05:48:00,29.0,27.0,30.18,NNW,330,0.0,-999.0,90,-99.99,,,0.00,weatherlink.com 1.10,2013-05-14 09:48:00,
2013-05-14 06:03:00,29.0,27.0,30.18,NNW,330,0.0,-999.0,90,-99.99,,,0.00,weatherlink.com 1.10,2013-05-14 10:03:00,
2013-05-14 06:18:00,29.0,27.0,30.19,NNW,330,0.0,-999.0,90,-99.99,,,0.00,weatherlink.com 1.10,2013-05-14 10:18:00,
2013-05-14 06:33:00,29.1,27.0,30.19,NNW,330,0.0,-999.0,91,-99.99,,,0.00,weatherlink.com 1.10,2013-05-14 10:33:00,
2013-05-14 06:48:00,29.4,27.0,30.18,NNW,330,0.0,-999.0,91,-99.99,,,0.00,weatherlink.com 1.10,2013-05-14 10:48:00,
2013-05-14 07:03:00,29.9,28.0,30.19,NNW,330,0.0,-999.0,91,-99.99,,,0.00,weatherlink.com 1.10,2013-05-14 11:03:00,
2013-05-14 07:18:00,30.5,29.0,30.19,NNW,330,0.0,-999.0,92,-99.99,,,0.00,weatherlink.com 1.10,2013-05-14 11:18:00,
2013-05-14 07:33:00,31.4,29.0,30.19,NNW,330,0.0,-999.0,92,-99.99,,,0.00,weatherlink.com 1.10,2013-05-14 11:33:00,
2013-05-14 07:48:00,32.9,31.0,30.20,NW,306,0.0,-999.0,93,-99.99,,,0.00,weatherlink.com 1.10,2013-05-14 11:48:00,
2013-05-14 08:03:00,35.0,33.0,30.20,NW,305,0.0,-999.0,93,-99.99,,,0.00,weatherlink.com 1.10,2013-05-14 12:03:00,
2013-05-14 08:18:00,37.2,35.0,30.20,SW,215,0.0,-999.0,92,-99.99,,,0.00,weatherlink.com 1.10,2013-05-14 12:18:00,
2013-05-14 08:33:00,39.0,36.0,30.20,SSW,213,0.0,-999.0,87,-99.99,,,0.00,weatherlink.com 1.10,2013-05-14 12:33:00,
2013-05-14 08:48:00,41.1,34.0,30.20,SW,220,2.0,-999.0,76,-99.99,,,0.00,weatherlink.com 1.10,2013-05-14 12:48:00,
2013-05-14 09:04:00,42.8,33.0,30.20,SW,236,3.0,-999.0,69,-99.99,,,0.00,weatherlink.com 1.10,2013-05-14 13:04:00,
2013-05-14 09:19:00,44.0,33.0,30.19,SW,227,0.0,-999.0,66,-99.99,,,0.00,weatherlink.com 1.10,2013-05-14 13:19:00,
2013-05-14 09:34:00,44.7,33.0,30.19,SW,220,1.0,-999.0,64,-99.99,,,0.00,weatherlink.com 1.10,2013-05-14 13:34:00,
2013-05-14 09:49:00,45.4,32.0,30.18,NW,304,4.0,-999.0,60,-99.99,,,0.00,weatherlink.com 1.10,2013-05-14 13:49:00,
2013-05-14 10:04:00,46.3,31.0,30.17,NW,309,5.0,-999.0,55,-99.99,,,0.00,weatherlink.com 1.10,2013-05-14 14:04:00,
2013-05-14 10:19:00,47.6,29.0,30.17,West,273,6.0,-999.0,49,-99.99,,,0.00,weatherlink.com 1.10,2013-05-14 14:19:00,
2013-05-14 10:34:00,48.7,31.0,30.16,ENE,66,2.0,-999.0,51,-99.99,,,0.00,weatherlink.com 1.10,2013-05-14 14:34:00,
2013-05-14 10:49:00,49.8,30.0,30.16,NW,319,4.0,-999.0,46,-99.99,,,0.00,weatherlink.com 1.10,2013-05-14 14:49:00,
2013-05-14 11:04:00,50.7,30.0,30.16,NE,44,5.0,-999.0,46,-99.99,,,0.00,weatherlink.com 1.10,2013-05-14 15:04:00,
2013-05-14 11:19:00,51.5,31.0,30.16,West,263,2.0,-999.0,45,-99.99,,,0.00,weatherlink.com 1.10,2013-05-14 15:19:00,
2013-05-14 11:34:00,52.2,31.0,30.15,SW,230,5.0,-999.0,44,-99.99,,,0.00,weatherlink.com 1.10,2013-05-14 15:34:00,
2013-05-14 11:49:00,53.3,32.0,30.15,SSW,213,4.0,-999.0,44,-99.99,,,0.00,weatherlink.com 1.10,2013-05-14 15:49:00,
2013-05-14 12:04:00,54.2,34.0,30.15,WSW,257,5.0,-999.0,46,-99.99,,,0.00,weatherlink.com 1.10,2013-05-14 16:04:00,
2013-05-14 12:19:00,55.6,33.0,30.14,NNW,346,0.0,-999.0,42,-99.99,,,0.00,weatherlink.com 1.10,2013-05-14 16:19:00,
2013-05-14 12:34:00,55.9,33.0,30.14,WNW,300,1.0,-999.0,42,-99.99,,,0.00,weatherlink.com 1.10,2013-05-14 16:34:00,
2013-05-14 12:49:00,56.5,32.0,30.13,SW,225,10.0,-999.0,39,-99.99,,,0.00,weatherlink.com 1.10,2013-05-14 16:49:00,
2013-05-14 13:04:00,56.7,34.0,30.13,NW,317,5.0,-999.0,43,-99.99,,,0.00,weatherlink.com 1.10,2013-05-14 17:04:00,
2013-05-14 13:19:00,57.0,33.0,30.12,NNE,17,2.0,-999.0,41,-99.99,,,0.00,weatherlink.com 1.10,2013-05-14 17:19:00,
2013-05-14 13:34:00,57.5,31.0,30.12,WNW,293,2.0,-999.0,37,-99.99,,,0.00,weatherlink.com 1.10,2013-05-14 17:34:00,
2013-05-14 13:49:00,59.6,32.0,30.11,West,269,2.0,-999.0,36,-99.99,,,0.00,weatherlink.com 1.10,2013-05-14 17:49:00,
2013-05-14 14:04:00,59.6,30.0,30.11,WSW,238,5.0,-999.0,32,-99.99,,,0.00,weatherlink.com 1.10,2013-05-14 18:04:00,
2013-05-14 14:20:00,58.5,29.0,30.11,West,265,4.0,-999.0,32,-99.99,,,0.00,weatherlink.com 1.10,2013-05-14 18:20:00,
2013-05-14 14:35:00,59.7,30.0,30.10,WNW,292,2.0,-999.0,32,-99.99,,,0.00,weatherlink.com 1.10,2013-05-14 18:35:00,
2013-05-14 14:50:00,60.5,30.0,30.10,SW,233,5.0,-999.0,31,-99.99,,,0.00,weatherlink.com 1.10,2013-05-14 18:50:00,
2013-05-14 15:05:00,62.0,30.0,30.09,West,277,3.0,-999.0,30,-99.99,,,0.00,weatherlink.com 1.10,2013-05-14 19:05:00,
2013-05-14 15:20:00,62.1,30.0,30.09,WNW,284,0.0,-999.0,30,-99.99,,,0.00,weatherlink.com 1.10,2013-05-14 19:20:00,
2013-05-14 15:35:00,62.1,29.0,30.08,SW,221,1.0,-999.0,29,-99.99,,,0.00,weatherlink.com 1.10,2013-05-14 19:35:00,
2013-05-14 15:50:00,62.1,28.0,30.08,WNW,288,6.0,-999.0,28,-99.99,,,0.00,weatherlink.com 1.10,2013-05-14 19:50:00,
2013-05-14 16:05:00,62.8,29.0,30.07,SW,225,5.0,-999.0,28,-99.99,,,0.00,weatherlink.com 1.10,2013-05-14 20:05:00,
2013-05-14 16:20:00,63.1,27.0,30.05,SW,234,0.0,-999.0,26,-99.99,,,0.00,weatherlink.com 1.10,2013-05-14 20:20:00,
2013-05-14 16:35:00,63.8,28.0,30.05,SSW,203,4.0,-999.0,26,-99.99,,,0.00,weatherlink.com 1.10,2013-05-14 20:35:00,
2013-05-14 16:50:00,65.4,33.0,30.04,South,180,0.0,-999.0,30,-99.99,,,0.00,weatherlink.com 1.10,2013-05-14 20:50:00,
2013-05-14 17:05:00,65.8,31.0,30.04,WNW,300,3.0,-999.0,27,-99.99,,,0.00,weatherlink.com 1.10,2013-05-14 21:05:00,
2013-05-14 17:20:00,65.0,30.0,30.03,SSE,164,0.0,-999.0,27,-99.99,,,0.00,weatherlink.com 1.10,2013-05-14 21:20:00,
2013-05-14 17:35:00,65.4,32.0,30.03,West,280,0.0,-999.0,29,-99.99,,,0.00,weatherlink.com 1.10,2013-05-14 21:35:00,
2013-05-14 17:50:00,65.2,30.0,30.03,West,260,1.0,-999.0,27,-99.99,,,0.00,weatherlink.com 1.10,2013-05-14 21:50:00,
2013-05-14 18:05:00,64.9,30.0,30.03,West,264,1.0,-999.0,27,-99.99,,,0.00,weatherlink.com 1.10,2013-05-14 22:05:00,
2013-05-14 18:20:00,63.7,31.0,30.02,South,181,0.0,-999.0,29,-99.99,,,0.00,weatherlink.com 1.10,2013-05-14 22:20:00,
2013-05-14 18:35:00,63.1,30.0,30.02,South,183,0.0,-999.0,29,-99.99,,,0.00,weatherlink.com 1.10,2013-05-14 22:35:00,
2013-05-14 18:50:00,61.7,33.0,30.02,West,271,2.0,-999.0,34,-99.99,,,0.00,weatherlink.com 1.10,2013-05-14 22:50:00,
2013-05-14 19:05:00,60.5,33.0,30.02,SW,227,2.0,-999.0,35,-99.99,,,0.00,weatherlink.com 1.10,2013-05-14 23:05:00,
2013-05-14 19:20:00,59.4,34.0,30.01,South,191,4.0,-999.0,38,-99.99,,,0.00,weatherlink.com 1.10,2013-05-14 23:20:00,
2013-05-14 19:35:00,58.6,34.0,30.01,SW,234,0.0,-999.0,39,-99.99,,,0.00,weatherlink.com 1.10,2013-05-14 23:35:00,
2013-05-14 19:50:00,57.9,34.0,30.01,West,261,3.0,-999.0,40,-99.99,,,0.00,weatherlink.com 1.10,2013-05-14 23:50:00,
2013-05-14 20:05:00,57.2,35.0,30.01,SW,217,2.0,-999.0,43,-99.99,,,0.00,weatherlink.com 1.10,2013-05-15 00:05:00,
2013-05-14 20:20:00,56.7,35.0,30.01,WSW,243,1.0,-999.0,45,-99.99,,,0.00,weatherlink.com 1.10,2013-05-15 00:20:00,
2013-05-14 20:35:00,56.2,35.0,30.02,SW,221,2.0,-999.0,46,-99.99,,,0.00,weatherlink.com 1.10,2013-05-15 00:35:00,
2013-05-14 20:50:00,55.7,37.0,30.03,SW,229,3.0,-999.0,50,-99.99,,,0.00,weatherlink.com 1.10,2013-05-15 00:50:00,
2013-05-14 20:59:00,55.4,37.6,30.03,SW,225,2.0,3.0,51,0.00,,,0.00,Wunderground v.1.15,2013-05-15 00:59:00,
2013-05-14 21:05:00,55.3,38.0,30.04,SW,215,2.0,3.0,52,0.00,,,0.00,Wunderground v.1.15,2013-05-15 01:05:00,
2013-05-14 21:14:00,55.0,38.2,30.04,SSW,213,2.0,2.0,53,0.00,,,0.00,Wunderground v.1.15,2013-05-15 01:14:00,
2013-05-14 21:20:00,54.9,38.6,30.04,SSW,212,2.0,2.0,54,0.00,,,0.00,Wunderground v.1.15,2013-05-15 01:20:00,
2013-05-14 21:21:00,54.9,38.0,30.04,SSW,202,2.0,-999.0,53,-99.99,,,0.00,weatherlink.com 1.10,2013-05-15 01:21:00,
2013-05-14 21:30:00,54.7,38.4,30.05,West,267,2.0,2.0,54,0.00,,,0.00,Wunderground v.1.15,2013-05-15 01:30:00,
2013-05-14 21:35:00,54.6,38.7,30.04,West,264,1.0,2.0,55,0.00,,,0.00,Wunderground v.1.15,2013-05-15 01:35:00,
2013-05-14 21:36:00,54.5,38.0,30.04,West,264,0.0,-999.0,55,-99.99,,,0.00,weatherlink.com 1.10,2013-05-15 01:36:00,
2013-05-14 21:45:00,54.4,38.6,30.05,SSW,209,1.0,1.0,55,0.00,,,0.00,Wunderground v.1.15,2013-05-15 01:45:00,
2013-05-14 21:50:00,54.4,39.0,30.05,SW,234,1.0,1.0,56,0.00,,,0.00,Wunderground v.1.15,2013-05-15 01:50:00,
2013-05-14 21:51:00,54.3,39.0,30.05,SW,234,0.0,-999.0,56,-99.99,,,0.00,weatherlink.com 1.10,2013-05-15 01:51:00,
2013-05-14 22:00:00,54.2,39.3,30.05,WSW,242,1.0,1.0,57,0.00,,,0.00,Wunderground v.1.15,2013-05-15 02:00:00,
2013-05-14 22:07:00,54.1,39.0,30.06,WSW,238,0.0,-999.0,57,-99.99,,,0.00,weatherlink.com 1.10,2013-05-15 02:07:00,
2013-05-14 22:15:00,54.0,39.1,30.06,SW,215,1.0,8.0,57,0.00,,,0.00,Wunderground v.1.15,2013-05-15 02:15:00,
2013-05-14 22:20:00,53.9,39.5,30.05,SW,236,2.0,2.0,58,0.00,,,0.00,Wunderground v.1.15,2013-05-15 02:20:00,
2013-05-14 22:21:00,54.0,39.0,30.05,SW,236,2.0,-999.0,58,-99.99,,,0.00,weatherlink.com 1.10,2013-05-15 02:21:00,
2013-05-14 22:36:00,53.6,40.0,30.05,SSW,213,3.0,-999.0,60,-99.99,,,0.00,weatherlink.com 1.10,2013-05-15 02:36:00,
2013-05-14 22:51:00,53.3,40.0,30.05,West,259,2.0,-999.0,60,-99.99,,,0.00,weatherlink.com 1.10,2013-05-15 02:51:00,
2013-05-14 23:06:00,53.1,40.0,30.04,SW,225,2.0,-999.0,62,-99.99,,,0.00,weatherlink.com 1.10,2013-05-15 03:06:00,
2013-05-14 23:21:00,52.9,40.0,30.04,SSW,213,0.0,-999.0,63,-99.99,,,0.00,weatherlink.com 1.10,2013-05-15 03:21:00,
2013-05-14 23:36:00,52.8,41.0,30.04,West,267,0.0,-999.0,64,-99.99,,,0.00,weatherlink.com 1.10,2013-05-15 03:36:00,
2013-05-14 23:51:00,52.5,41.0,30.04,West,267,0.0,-999.0,66,-99.99,,,0.00,weatherlink.com 1.10,2013-05-15 03:51:00,